sensor_id;sensor_type;location;lat;lon;timestamp;pressure;altitude;pressure_sealevel;temperature
67509;BMP280;54354;44.724;11.284;2024-01-07T00:00:06;99702.53;;;15.29
67509;BMP280;54354;44.724;11.284;2024-01-07T00:02:33;99699.56;;;15.27
67509;BMP280;54354;44.724;11.284;2024-01-07T00:04:59;99717.59;;;15.32
67509;BMP280;54354;44.724;11.284;2024-01-07T00:07:24;99710.63;;;15.35
67509;BMP280;54354;44.724;11.284;2024-01-07T00:09:50;99710.63;;;15.35
67509;BMP280;54354;44.724;11.284;2024-01-07T00:12:15;99715.66;;;15.33
67509;BMP280;54354;44.724;11.284;2024-01-07T00:14:42;99715.38;;;15.31
67509;BMP280;54354;44.724;11.284;2024-01-07T00:17:10;99710.75;;;15.31
67509;BMP280;54354;44.724;11.284;2024-01-07T00:19:36;99712.25;;;15.32
67509;BMP280;54354;44.724;11.284;2024-01-07T00:22:03;99700.84;;;15.32
67509;BMP280;54354;44.724;11.284;2024-01-07T00:24:29;99717.84;;;15.34
67509;BMP280;54354;44.724;11.284;2024-01-07T00:26:55;99705.28;;;15.35
67509;BMP280;54354;44.724;11.284;2024-01-07T00:29:21;99707.94;;;15.35
67509;BMP280;54354;44.724;11.284;2024-01-07T00:31:49;99710.84;;;15.37
67509;BMP280;54354;44.724;11.284;2024-01-07T00:34:14;99711.06;;;15.33
67509;BMP280;54354;44.724;11.284;2024-01-07T00:36:42;99704.69;;;15.31
67509;BMP280;54354;44.724;11.284;2024-01-07T00:39:08;99712.25;;;15.32
67509;BMP280;54354;44.724;11.284;2024-01-07T00:41:35;99713.44;;;15.31
67509;BMP280;54354;44.724;11.284;2024-01-07T00:44:02;99717.31;;;15.30
67509;BMP280;54354;44.724;11.284;2024-01-07T00:46:29;99718.03;;;15.31
67509;BMP280;54354;44.724;11.284;2024-01-07T00:48:55;99722.19;;;15.32
67509;BMP280;54354;44.724;11.284;2024-01-07T00:51:20;99722.66;;;15.30
67509;BMP280;54354;44.724;11.284;2024-01-07T00:53:46;99726.22;;;15.27
67509;BMP280;54354;44.724;11.284;2024-01-07T00:56:14;99725.50;;;15.27
67509;BMP280;54354;44.724;11.284;2024-01-07T00:58:40;99723.56;;;15.27
67509;BMP280;54354;44.724;11.284;2024-01-07T01:01:07;99722.84;;;15.27
67509;BMP280;54354;44.724;11.284;2024-01-07T01:03:33;99724.75;;;15.26
67509;BMP280;54354;44.724;11.284;2024-01-07T01:06:00;99745.34;;;15.26
67509;BMP280;54354;44.724;11.284;2024-01-07T01:08:28;99736.38;;;15.23
67509;BMP280;54354;44.724;11.284;2024-01-07T01:10:54;99740.50;;;15.24
67509;BMP280;54354;44.724;11.284;2024-01-07T01:13:20;99746.09;;;15.26
67509;BMP280;54354;44.724;11.284;2024-01-07T01:15:46;99747.75;;;15.24
67509;BMP280;54354;44.724;11.284;2024-01-07T01:18:12;99757.41;;;15.21
67509;BMP280;54354;44.724;11.284;2024-01-07T01:20:37;99751.16;;;15.24
67509;BMP280;54354;44.724;11.284;2024-01-07T01:23:06;99746.19;;;15.17
67509;BMP280;54354;44.724;11.284;2024-01-07T01:25:33;99753.84;;;15.24
67509;BMP280;54354;44.724;11.284;2024-01-07T01:28:00;99762.56;;;15.25
67509;BMP280;54354;44.724;11.284;2024-01-07T01:30:26;99768.38;;;15.23
67509;BMP280;54354;44.724;11.284;2024-01-07T01:32:56;99760.47;;;15.29
67509;BMP280;54354;44.724;11.284;2024-01-07T01:35:23;99757.22;;;15.25
67509;BMP280;54354;44.724;11.284;2024-01-07T01:37:50;99756.00;;;15.26
67509;BMP280;54354;44.724;11.284;2024-01-07T01:40:17;99753.09;;;15.24
67509;BMP280;54354;44.724;11.284;2024-01-07T01:42:49;99746.09;;;15.26
67509;BMP280;54354;44.724;11.284;2024-01-07T01:45:15;99759.16;;;15.24
67509;BMP280;54354;44.724;11.284;2024-01-07T01:47:40;99752.06;;;15.21
67509;BMP280;54354;44.724;11.284;2024-01-07T01:50:07;99751.06;;;15.19
67509;BMP280;54354;44.724;11.284;2024-01-07T01:52:32;99758.78;;;15.17
67509;BMP280;54354;44.724;11.284;2024-01-07T01:55:00;99749.78;;;15.14
67509;BMP280;54354;44.724;11.284;2024-01-07T01:57:33;99738.28;;;15.08
67509;BMP280;54354;44.724;11.284;2024-01-07T02:00:02;99735.34;;;15.06
67509;BMP280;54354;44.724;11.284;2024-01-07T02:02:33;99737.53;;;15.07
67509;BMP280;54354;44.724;11.284;2024-01-07T02:05:02;99740.78;;;15.11
67509;BMP280;54354;44.724;11.284;2024-01-07T02:07:33;99730.19;;;15.02
67509;BMP280;54354;44.724;11.284;2024-01-07T02:10:00;99741.13;;;15.04
67509;BMP280;54354;44.724;11.284;2024-01-07T02:12:26;99745.41;;;15.02
67509;BMP280;54354;44.724;11.284;2024-01-07T02:14:52;99740.09;;;15.02
67509;BMP280;54354;44.724;11.284;2024-01-07T02:17:19;99737.34;;;14.96
67509;BMP280;54354;44.724;11.284;2024-01-07T02:19:46;99726.41;;;14.94
67509;BMP280;54354;44.724;11.284;2024-01-07T02:22:13;99740.28;;;14.98
67509;BMP280;54354;44.724;11.284;2024-01-07T02:24:40;99734.69;;;14.96
67509;BMP280;54354;44.724;11.284;2024-01-07T02:27:07;99741.22;;;14.95
67509;BMP280;54354;44.724;11.284;2024-01-07T02:29:34;99737.34;;;14.96
67509;BMP280;54354;44.724;11.284;2024-01-07T02:32:03;99735.88;;;14.95
67509;BMP280;54354;44.724;11.284;2024-01-07T02:34:30;99742.69;;;14.96
67509;BMP280;54354;44.724;11.284;2024-01-07T02:36:56;99733.69;;;14.94
67509;BMP280;54354;44.724;11.284;2024-01-07T02:39:22;99739.13;;;14.99
67509;BMP280;54354;44.724;11.284;2024-01-07T02:41:49;99737.19;;;15.00
67509;BMP280;54354;44.724;11.284;2024-01-07T02:44:15;99740.84;;;15.02
67509;BMP280;54354;44.724;11.284;2024-01-07T02:46:41;99739.66;;;15.03
67509;BMP280;54354;44.724;11.284;2024-01-07T02:49:06;99739.94;;;15.05
67509;BMP280;54354;44.724;11.284;2024-01-07T02:51:32;99739.94;;;15.05
67509;BMP280;54354;44.724;11.284;2024-01-07T02:53:57;99742.31;;;15.03
67509;BMP280;54354;44.724;11.284;2024-01-07T02:56:23;99736.25;;;15.03
67509;BMP280;54354;44.724;11.284;2024-01-07T02:58:48;99742.59;;;15.05
67509;BMP280;54354;44.724;11.284;2024-01-07T03:01:14;99742.16;;;15.07
67509;BMP280;54354;44.724;11.284;2024-01-07T03:03:39;99742.59;;;15.05
67509;BMP280;54354;44.724;11.284;2024-01-07T03:06:05;99742.59;;;15.05
67509;BMP280;54354;44.724;11.284;2024-01-07T03:08:31;99735.53;;;15.02
67509;BMP280;54354;44.724;11.284;2024-01-07T03:10:56;99738.44;;;15.04
67509;BMP280;54354;44.724;11.284;2024-01-07T03:13:22;99731.94;;;15.05
67509;BMP280;54354;44.724;11.284;2024-01-07T03:15:47;99732.94;;;15.08
67509;BMP280;54354;44.724;11.284;2024-01-07T03:18:13;99744.50;;;15.05
67509;BMP280;54354;44.724;11.284;2024-01-07T03:20:38;99736.25;;;15.03
67509;BMP280;54354;44.724;11.284;2024-01-07T03:23:04;99746.66;;;15.01
67509;BMP280;54354;44.724;11.284;2024-01-07T03:25:30;99737.19;;;15.00
67509;BMP280;54354;44.724;11.284;2024-01-07T03:27:55;99735.25;;;15.00
67509;BMP280;54354;44.724;11.284;2024-01-07T03:30:20;99743.97;;;15.01
67509;BMP280;54354;44.724;11.284;2024-01-07T03:32:46;99741.00;;;14.99
67509;BMP280;54354;44.724;11.284;2024-01-07T03:35:12;99738.81;;;14.97
67509;BMP280;54354;44.724;11.284;2024-01-07T03:37:37;99738.56;;;14.95
67509;BMP280;54354;44.724;11.284;2024-01-07T03:40:03;99738.56;;;14.95
67509;BMP280;54354;44.724;11.284;2024-01-07T03:42:29;99739.56;;;14.98
67509;BMP280;54354;44.724;11.284;2024-01-07T03:44:54;99743.41;;;14.97
67509;BMP280;54354;44.724;11.284;2024-01-07T03:47:20;99742.22;;;14.98
67509;BMP280;54354;44.724;11.284;2024-01-07T03:49:45;99750.69;;;14.96
67509;BMP280;54354;44.724;11.284;2024-01-07T03:52:11;99742.69;;;14.96
67509;BMP280;54354;44.724;11.284;2024-01-07T03:54:36;99751.16;;;14.95
67509;BMP280;54354;44.724;11.284;2024-01-07T03:57:02;99747.75;;;14.94
67509;BMP280;54354;44.724;11.284;2024-01-07T03:59:27;99754.72;;;14.92
67509;BMP280;54354;44.724;11.284;2024-01-07T04:01:55;99744.97;;;14.89
67509;BMP280;54354;44.724;11.284;2024-01-07T04:04:21;99747.66;;;14.89
67509;BMP280;54354;44.724;11.284;2024-01-07T04:06:46;99751.03;;;14.89
67509;BMP280;54354;44.724;11.284;2024-01-07T04:09:11;99757.38;;;14.92
67509;BMP280;54354;44.724;11.284;2024-01-07T04:11:41;99748.53;;;14.85
67509;BMP280;54354;44.724;11.284;2024-01-07T04:14:07;99748.94;;;14.93
67509;BMP280;54354;44.724;11.284;2024-01-07T04:16:33;99754.16;;;14.88
67509;BMP280;54354;44.724;11.284;2024-01-07T04:18:58;99757.56;;;14.88
67509;BMP280;54354;44.724;11.284;2024-01-07T04:21:24;99759.03;;;14.89
67509;BMP280;54354;44.724;11.284;2024-01-07T04:23:49;99753.72;;;14.89
67509;BMP280;54354;44.724;11.284;2024-01-07T04:26:15;99759.03;;;14.89
67509;BMP280;54354;44.724;11.284;2024-01-07T04:28:42;99754.59;;;14.86
67509;BMP280;54354;44.724;11.284;2024-01-07T04:31:08;99764.38;;;14.89
67509;BMP280;54354;44.724;11.284;2024-01-07T04:33:34;99772.63;;;14.91
67509;BMP280;54354;44.724;11.284;2024-01-07T04:35:59;99770.69;;;14.92
67509;BMP280;54354;44.724;11.284;2024-01-07T04:38:29;99757.72;;;14.84
67509;BMP280;54354;44.724;11.284;2024-01-07T04:40:54;99769.69;;;14.89
67509;BMP280;54354;44.724;11.284;2024-01-07T04:43:20;99777.69;;;14.89
67509;BMP280;54354;44.724;11.284;2024-01-07T04:45:46;99776.97;;;14.89
67509;BMP280;54354;44.724;11.284;2024-01-07T04:48:12;99776.84;;;14.83
67509;BMP280;54354;44.724;11.284;2024-01-07T04:50:39;99777.47;;;14.78
67509;BMP280;54354;44.724;11.284;2024-01-07T04:53:07;99777.31;;;14.81
67509;BMP280;54354;44.724;11.284;2024-01-07T04:55:33;99788.72;;;14.82
67509;BMP280;54354;44.724;11.284;2024-01-07T04:57:58;99788.25;;;14.83
67509;BMP280;54354;44.724;11.284;2024-01-07T05:00:24;99790.91;;;14.83
67509;BMP280;54354;44.724;11.284;2024-01-07T05:02:49;99796.81;;;14.88
67509;BMP280;54354;44.724;11.284;2024-01-07T05:05:15;99796.06;;;14.87
67509;BMP280;54354;44.724;11.284;2024-01-07T05:07:40;99797.97;;;14.86
67509;BMP280;54354;44.724;11.284;2024-01-07T05:10:06;99799.19;;;14.85
67509;BMP280;54354;44.724;11.284;2024-01-07T05:12:32;99799.19;;;14.85
67509;BMP280;54354;44.724;11.284;2024-01-07T05:14:57;99804.03;;;14.87
67509;BMP280;54354;44.724;11.284;2024-01-07T05:17:23;99797.53;;;14.88
67509;BMP280;54354;44.724;11.284;2024-01-07T05:19:49;99807.00;;;14.89
67509;BMP280;54354;44.724;11.284;2024-01-07T05:22:14;99803.16;;;14.90
67509;BMP280;54354;44.724;11.284;2024-01-07T05:24:39;99807.00;;;14.89
67509;BMP280;54354;44.724;11.284;2024-01-07T05:27:05;99809.69;;;14.89
67509;BMP280;54354;44.724;11.284;2024-01-07T05:29:32;99801.84;;;14.85
67509;BMP280;54354;44.724;11.284;2024-01-07T05:32:01;99807.00;;;14.89
67509;BMP280;54354;44.724;11.284;2024-01-07T05:34:28;99811.13;;;14.90
67509;BMP280;54354;44.724;11.284;2024-01-07T05:36:53;99811.41;;;14.92
67509;BMP280;54354;44.724;11.284;2024-01-07T05:39:19;99815.56;;;14.93
67509;BMP280;54354;44.724;11.284;2024-01-07T05:41:45;99815.56;;;14.93
67509;BMP280;54354;44.724;11.284;2024-01-07T05:44:11;99807.75;;;14.90
67509;BMP280;54354;44.724;11.284;2024-01-07T05:46:40;99806.44;;;14.85
67509;BMP280;54354;44.724;11.284;2024-01-07T05:49:06;99818.69;;;14.92
67509;BMP280;54354;44.724;11.284;2024-01-07T05:51:32;99814.28;;;14.89
67509;BMP280;54354;44.724;11.284;2024-01-07T05:53:57;99814.72;;;14.87
67509;BMP280;54354;44.724;11.284;2024-01-07T05:56:23;99819.75;;;14.85
67509;BMP280;54354;44.724;11.284;2024-01-07T05:58:49;99822.44;;;14.85
67509;BMP280;54354;44.724;11.284;2024-01-07T06:01:21;99814.31;;;14.79
67509;BMP280;54354;44.724;11.284;2024-01-07T06:03:47;99823.16;;;14.85
67509;BMP280;54354;44.724;11.284;2024-01-07T06:06:14;99818.75;;;14.82
67509;BMP280;54354;44.724;11.284;2024-01-07T06:08:42;99833.94;;;14.91
67509;BMP280;54354;44.724;11.284;2024-01-07T06:11:08;99825.09;;;14.85
67509;BMP280;54354;44.724;11.284;2024-01-07T06:13:34;99831.63;;;14.84
67509;BMP280;54354;44.724;11.284;2024-01-07T06:16:00;99839.16;;;14.85
67509;BMP280;54354;44.724;11.284;2024-01-07T06:18:25;99845.94;;;14.86
67509;BMP280;54354;44.724;11.284;2024-01-07T06:20:51;99843.28;;;14.86
67509;BMP280;54354;44.724;11.284;2024-01-07T06:23:16;99845.22;;;14.86
67509;BMP280;54354;44.724;11.284;2024-01-07T06:25:43;99847.59;;;14.84
67509;BMP280;54354;44.724;11.284;2024-01-07T06:28:08;99851.00;;;14.84
67509;BMP280;54354;44.724;11.284;2024-01-07T06:30:35;99847.59;;;14.84
67509;BMP280;54354;44.724;11.284;2024-01-07T06:33:01;99854.88;;;14.83
67509;BMP280;54354;44.724;11.284;2024-01-07T06:35:26;99851.94;;;14.81
67509;BMP280;54354;44.724;11.284;2024-01-07T06:37:52;99862.13;;;14.83
67509;BMP280;54354;44.724;11.284;2024-01-07T06:40:18;99864.06;;;14.82
67509;BMP280;54354;44.724;11.284;2024-01-07T06:42:44;99859.63;;;14.79
67509;BMP280;54354;44.724;11.284;2024-01-07T06:45:10;99863.94;;;14.77
67509;BMP280;54354;44.724;11.284;2024-01-07T06:47:35;99863.94;;;14.77
67509;BMP280;54354;44.724;11.284;2024-01-07T06:50:00;99866.63;;;14.77
67509;BMP280;54354;44.724;11.284;2024-01-07T06:52:26;99865.41;;;14.78
67509;BMP280;54354;44.724;11.284;2024-01-07T06:54:51;99868.09;;;14.78
67509;BMP280;54354;44.724;11.284;2024-01-07T06:57:17;99873.41;;;14.78
67509;BMP280;54354;44.724;11.284;2024-01-07T06:59:42;99874.59;;;14.77
67509;BMP280;54354;44.724;11.284;2024-01-07T07:02:08;99873.56;;;14.74
67509;BMP280;54354;44.724;11.284;2024-01-07T07:04:33;99875.97;;;14.72
67509;BMP280;54354;44.724;11.284;2024-01-07T07:06:59;99880.09;;;14.73
67509;BMP280;54354;44.724;11.284;2024-01-07T07:09:25;99882.03;;;14.73
67509;BMP280;54354;44.724;11.284;2024-01-07T07:11:51;99890.75;;;14.73
67509;BMP280;54354;44.724;11.284;2024-01-07T07:14:16;99887.34;;;14.73
67509;BMP280;54354;44.724;11.284;2024-01-07T07:16:41;99899.06;;;14.75
67509;BMP280;54354;44.724;11.284;2024-01-07T07:19:07;99893.25;;;14.77
67509;BMP280;54354;44.724;11.284;2024-01-07T07:21:32;99902.00;;;14.77
67509;BMP280;54354;44.724;11.284;2024-01-07T07:23:58;99895.63;;;14.75
67509;BMP280;54354;44.724;11.284;2024-01-07T07:26:24;99901.41;;;14.73
67509;BMP280;54354;44.724;11.284;2024-01-07T07:28:49;99908.22;;;14.74
67509;BMP280;54354;44.724;11.284;2024-01-07T07:31:15;99911.59;;;14.75
67509;BMP280;54354;44.724;11.284;2024-01-07T07:33:40;99908.66;;;14.73
67509;BMP280;54354;44.724;11.284;2024-01-07T07:36:06;99900.41;;;14.71
67509;BMP280;54354;44.724;11.284;2024-01-07T07:38:32;99916.38;;;14.71
67509;BMP280;54354;44.724;11.284;2024-01-07T07:40:58;99907.66;;;14.70
67509;BMP280;54354;44.724;11.284;2024-01-07T07:43:24;99917.59;;;14.70
67509;BMP280;54354;44.724;11.284;2024-01-07T07:45:50;99911.22;;;14.67
67509;BMP280;54354;44.724;11.284;2024-01-07T07:48:16;99917.28;;;14.68
67509;BMP280;54354;44.724;11.284;2024-01-07T07:50:42;99919.22;;;14.67
67509;BMP280;54354;44.724;11.284;2024-01-07T07:53:07;99926.31;;;14.70
67509;BMP280;54354;44.724;11.284;2024-01-07T07:55:33;99922.44;;;14.71
67509;BMP280;54354;44.724;11.284;2024-01-07T07:57:58;99930.91;;;14.70
67509;BMP280;54354;44.724;11.284;2024-01-07T08:00:24;99925.38;;;14.73
67509;BMP280;54354;44.724;11.284;2024-01-07T08:02:49;99927.31;;;14.73
67509;BMP280;54354;44.724;11.284;2024-01-07T08:05:15;99932.66;;;14.73
67509;BMP280;54354;44.724;11.284;2024-01-07T08:07:42;99930.00;;;14.73
67509;BMP280;54354;44.724;11.284;2024-01-07T08:10:07;99936.06;;;14.73
67509;BMP280;54354;44.724;11.284;2024-01-07T08:12:34;99931.91;;;14.72
67509;BMP280;54354;44.724;11.284;2024-01-07T08:14:59;99948.47;;;14.76
67509;BMP280;54354;44.724;11.284;2024-01-07T08:17:25;99948.47;;;14.76
67509;BMP280;54354;44.724;11.284;2024-01-07T08:19:50;99951.16;;;14.76
67509;BMP280;54354;44.724;11.284;2024-01-07T08:22:16;99949.38;;;14.73
67509;BMP280;54354;44.724;11.284;2024-01-07T08:24:41;99953.22;;;14.72
67509;BMP280;54354;44.724;11.284;2024-01-07T08:27:08;99946.88;;;14.70
67509;BMP280;54354;44.724;11.284;2024-01-07T08:29:33;99965.53;;;14.70
67509;BMP280;54354;44.724;11.284;2024-01-07T08:31:59;99956.81;;;14.69
67509;BMP280;54354;44.724;11.284;2024-01-07T08:34:25;99961.97;;;14.73
67509;BMP280;54354;44.724;11.284;2024-01-07T08:36:50;99974.41;;;14.76
67509;BMP280;54354;44.724;11.284;2024-01-07T08:39:16;99969.50;;;14.74
67509;BMP280;54354;44.724;11.284;2024-01-07T08:41:41;99975.88;;;14.77
67509;BMP280;54354;44.724;11.284;2024-01-07T08:44:07;99970.53;;;14.77
67509;BMP280;54354;44.724;11.284;2024-01-07T08:46:34;99971.56;;;14.79
67509;BMP280;54354;44.724;11.284;2024-01-07T08:48:59;99974.94;;;14.80
67509;BMP280;54354;44.724;11.284;2024-01-07T08:51:25;99971.09;;;14.81
67509;BMP280;54354;44.724;11.284;2024-01-07T08:53:51;99980.13;;;14.83
67509;BMP280;54354;44.724;11.284;2024-01-07T08:56:16;99980.41;;;14.85
67509;BMP280;54354;44.724;11.284;2024-01-07T08:58:42;99971.22;;;14.86
67509;BMP280;54354;44.724;11.284;2024-01-07T09:01:07;99977.28;;;14.87
67509;BMP280;54354;44.724;11.284;2024-01-07T09:03:33;99983.38;;;14.88
67509;BMP280;54354;44.724;11.284;2024-01-07T09:05:59;99977.28;;;14.87
67509;BMP280;54354;44.724;11.284;2024-01-07T09:08:24;99987.94;;;14.87
67509;BMP280;54354;44.724;11.284;2024-01-07T09:10:50;99989.88;;;14.86
67509;BMP280;54354;44.724;11.284;2024-01-07T09:13:15;99989.59;;;14.84
67509;BMP280;54354;44.724;11.284;2024-01-07T09:15:41;99993.72;;;14.85
67509;BMP280;54354;44.724;11.284;2024-01-07T09:18:07;99997.13;;;14.86
67509;BMP280;54354;44.724;11.284;2024-01-07T09:20:32;100004.69;;;14.88
67509;BMP280;54354;44.724;11.284;2024-01-07T09:22:58;100000.38;;;14.90
67509;BMP280;54354;44.724;11.284;2024-01-07T09:25:24;100009.84;;;14.91
67509;BMP280;54354;44.724;11.284;2024-01-07T09:27:51;100003.31;;;14.92
67509;BMP280;54354;44.724;11.284;2024-01-07T09:30:17;100011.63;;;14.94
67509;BMP280;54354;44.724;11.284;2024-01-07T09:32:43;100013.56;;;14.94
67509;BMP280;54354;44.724;11.284;2024-01-07T09:35:09;100007.03;;;14.95
67509;BMP280;54354;44.724;11.284;2024-01-07T09:37:34;100020.63;;;14.97
67509;BMP280;54354;44.724;11.284;2024-01-07T09:40:01;100005.09;;;14.95
67509;BMP280;54354;44.724;11.284;2024-01-07T09:42:27;100015.31;;;14.97
67509;BMP280;54354;44.724;11.284;2024-01-07T09:44:52;100012.75;;;15.02
67509;BMP280;54354;44.724;11.284;2024-01-07T09:47:18;100018.09;;;15.02
67509;BMP280;54354;44.724;11.284;2024-01-07T09:49:46;100005.22;;;15.01
67509;BMP280;54354;44.724;11.284;2024-01-07T09:52:11;100013.97;;;15.01
67509;BMP280;54354;44.724;11.284;2024-01-07T09:54:38;100002.56;;;15.01
67509;BMP280;54354;44.724;11.284;2024-01-07T09:57:05;99999.16;;;15.00
67509;BMP280;54354;44.724;11.284;2024-01-07T09:59:32;100007.16;;;15.00
67509;BMP280;54354;44.724;11.284;2024-01-07T10:01:58;100006.09;;;14.98
67509;BMP280;54354;44.724;11.284;2024-01-07T10:04:25;100005.84;;;14.96
67509;BMP280;54354;44.724;11.284;2024-01-07T10:06:51;100013.38;;;14.97
67509;BMP280;54354;44.724;11.284;2024-01-07T10:09:19;100014.84;;;14.98
67509;BMP280;54354;44.724;11.284;2024-01-07T10:11:47;100012.00;;;15.02
67509;BMP280;54354;44.724;11.284;2024-01-07T10:14:12;100016.16;;;15.03
67509;BMP280;54354;44.724;11.284;2024-01-07T10:16:39;100015.88;;;15.01
67509;BMP280;54354;44.724;11.284;2024-01-07T10:19:04;100013.78;;;15.05
67509;BMP280;54354;44.724;11.284;2024-01-07T10:21:30;100015.28;;;15.06
67509;BMP280;54354;44.724;11.284;2024-01-07T10:24:11;100000.56;;;15.10
67509;BMP280;54354;44.724;11.284;2024-01-07T10:26:38;100002.22;;;15.08
67509;BMP280;54354;44.724;11.284;2024-01-07T10:29:04;100008.28;;;15.08
67509;BMP280;54354;44.724;11.284;2024-01-07T10:31:31;100003.88;;;15.05
67509;BMP280;54354;44.724;11.284;2024-01-07T10:33:57;100012.41;;;15.09
67509;BMP280;54354;44.724;11.284;2024-01-07T10:36:23;100011.69;;;15.09
67509;BMP280;54354;44.724;11.284;2024-01-07T10:38:50;100008.13;;;15.12
67509;BMP280;54354;44.724;11.284;2024-01-07T10:41:18;100000.28;;;15.08
67509;BMP280;54354;44.724;11.284;2024-01-07T10:43:46;99998.78;;;15.07
67509;BMP280;54354;44.724;11.284;2024-01-07T10:46:13;99999.81;;;15.10
67509;BMP280;54354;44.724;11.284;2024-01-07T10:49:27;99996.88;;;15.08
67509;BMP280;54354;44.724;11.284;2024-01-07T10:51:34;99999.66;;;15.13
67509;BMP280;54354;44.724;11.284;2024-01-07T10:54:00;100002.59;;;15.16
67509;BMP280;54354;44.724;11.284;2024-01-07T10:56:48;100001.53;;;15.22
67509;BMP280;54354;44.724;11.284;2024-01-07T10:59:19;100001.00;;;15.18
67509;BMP280;54354;44.724;11.284;2024-01-07T11:01:45;99998.94;;;15.13
67509;BMP280;54354;44.724;11.284;2024-01-07T11:04:19;99998.06;;;15.07
67509;BMP280;54354;44.724;11.284;2024-01-07T11:06:55;99995.69;;;15.09
67509;BMP280;54354;44.724;11.284;2024-01-07T11:09:36;99999.41;;;15.11
67509;BMP280;54354;44.724;11.284;2024-01-07T11:12:04;100005.75;;;15.14
67509;BMP280;54354;44.724;11.284;2024-01-07T11:17:05;99993.03;;;15.09
67509;BMP280;54354;44.724;11.284;2024-01-07T11:19:31;100004.72;;;15.11
67509;BMP280;54354;44.724;11.284;2024-01-07T11:24:50;99993.31;;;15.11
67509;BMP280;54354;44.724;11.284;2024-01-07T11:27:16;99993.75;;;15.09
67509;BMP280;54354;44.724;11.284;2024-01-07T11:29:41;99983.41;;;15.11
67509;BMP280;54354;44.724;11.284;2024-01-07T11:32:07;99987.53;;;15.12
67509;BMP280;54354;44.724;11.284;2024-01-07T11:34:40;99977.34;;;15.11
67509;BMP280;54354;44.724;11.284;2024-01-07T11:37:15;99978.63;;;15.16
67509;BMP280;54354;44.724;11.284;2024-01-07T11:39:48;99978.06;;;15.11
67509;BMP280;54354;44.724;11.284;2024-01-07T11:42:14;99980.84;;;15.17
67509;BMP280;54354;44.724;11.284;2024-01-07T11:44:56;99968.41;;;15.14
67509;BMP280;54354;44.724;11.284;2024-01-07T11:47:22;99979.94;;;15.20
67509;BMP280;54354;44.724;11.284;2024-01-07T11:49:48;99978.72;;;15.21
67509;BMP280;54354;44.724;11.284;2024-01-07T11:52:17;99974.44;;;15.24
67509;BMP280;54354;44.724;11.284;2024-01-07T11:54:43;99978.09;;;15.26
67509;BMP280;54354;44.724;11.284;2024-01-07T11:57:10;99972.78;;;15.26
67509;BMP280;54354;44.724;11.284;2024-01-07T11:59:36;99964.63;;;15.30
67509;BMP280;54354;44.724;11.284;2024-01-07T12:02:02;99968.03;;;15.30
67509;BMP280;54354;44.724;11.284;2024-01-07T12:04:33;99959.28;;;15.30
67509;BMP280;54354;44.724;11.284;2024-01-07T12:06:59;99969.88;;;15.39
67509;BMP280;54354;44.724;11.284;2024-01-07T12:09:29;99957.34;;;15.30
67509;BMP280;54354;44.724;11.284;2024-01-07T12:11:55;99975.09;;;15.33
67509;BMP280;54354;44.724;11.284;2024-01-07T12:14:21;99969.75;;;15.33
67509;BMP280;54354;44.724;11.284;2024-01-07T12:16:48;99972.44;;;15.33
67509;BMP280;54354;44.724;11.284;2024-01-07T12:19:14;99971.38;;;15.31
67509;BMP280;54354;44.724;11.284;2024-01-07T12:21:42;99967.28;;;15.30
67509;BMP280;54354;44.724;11.284;2024-01-07T12:24:12;99967.47;;;15.94
67509;BMP280;54354;44.724;11.284;2024-01-07T12:26:41;99965.06;;;15.43
67509;BMP280;54354;44.724;11.284;2024-01-07T12:29:07;99970.31;;;15.37
67509;BMP280;54354;44.724;11.284;2024-01-07T12:31:33;99965.34;;;15.30
67509;BMP280;54354;44.724;11.284;2024-01-07T12:34:07;99960.00;;;15.30
67509;BMP280;54354;44.724;11.284;2024-01-07T12:36:36;99970.09;;;15.26
67509;BMP280;54354;44.724;11.284;2024-01-07T12:39:04;99978.28;;;15.23
67509;BMP280;54354;44.724;11.284;2024-01-07T12:41:30;99987.16;;;15.29
67509;BMP280;54354;44.724;11.284;2024-01-07T12:43:56;99987.88;;;15.29
67509;BMP280;54354;44.724;11.284;2024-01-07T12:46:22;99990.34;;;15.33
67509;BMP280;54354;44.724;11.284;2024-01-07T12:48:48;99979.22;;;15.34
67509;BMP280;54354;44.724;11.284;2024-01-07T12:51:16;99977.31;;;15.35
67509;BMP280;54354;44.724;11.284;2024-01-07T12:53:41;99985.41;;;15.40
67509;BMP280;54354;44.724;11.284;2024-01-07T12:56:08;99989.09;;;15.43
67509;BMP280;54354;44.724;11.284;2024-01-07T12:58:33;99986.72;;;15.45
67509;BMP280;54354;44.724;11.284;2024-01-07T13:01:01;99987.16;;;15.44
67509;BMP280;54354;44.724;11.284;2024-01-07T13:03:27;99976.66;;;15.40
67509;BMP280;54354;44.724;11.284;2024-01-07T13:05:53;99979.63;;;15.42
67509;BMP280;54354;44.724;11.284;2024-01-07T13:08:19;99984.06;;;15.45
67509;BMP280;54354;44.724;11.284;2024-01-07T13:10:48;99980.34;;;15.43
67509;BMP280;54354;44.724;11.284;2024-01-07T13:13:14;99988.97;;;15.37
67509;BMP280;54354;44.724;11.284;2024-01-07T13:15:41;99986.50;;;15.34
67509;BMP280;54354;44.724;11.284;2024-01-07T13:18:08;99985.47;;;15.31
67509;BMP280;54354;44.724;11.284;2024-01-07T13:20:34;99990.56;;;15.29
67509;BMP280;54354;44.724;11.284;2024-01-07T13:23:06;99989.81;;;15.29
67509;BMP280;54354;44.724;11.284;2024-01-07T13:25:32;99997.06;;;15.28
67509;BMP280;54354;44.724;11.284;2024-01-07T13:28:03;99992.63;;;15.25
67509;BMP280;54354;44.724;11.284;2024-01-07T13:30:29;100000.56;;;15.34
67509;BMP280;54354;44.724;11.284;2024-01-07T13:32:55;100001.94;;;15.30
67509;BMP280;54354;44.724;11.284;2024-01-07T13:35:27;100006.38;;;15.33
67509;BMP280;54354;44.724;11.284;2024-01-07T13:37:57;100009.59;;;15.37
67509;BMP280;54354;44.724;11.284;2024-01-07T13:40:30;100000.72;;;15.31
67509;BMP280;54354;44.724;11.284;2024-01-07T13:42:56;100004.13;;;15.31
67509;BMP280;54354;44.724;11.284;2024-01-07T13:45:25;100002.56;;;15.25
67509;BMP280;54354;44.724;11.284;2024-01-07T13:48:01;100004.00;;;15.26
67509;BMP280;54354;44.724;11.284;2024-01-07T13:50:32;100015.09;;;15.33
67509;BMP280;54354;44.724;11.284;2024-01-07T13:53:01;100004.31;;;15.28
67509;BMP280;54354;44.724;11.284;2024-01-07T13:55:39;100013.81;;;15.29